TRA6082 LFBE-EHRD
Flight info
| Callsign | TRA6082 |
|---|---|
| Flight time | N/A |
| Altitude | 18000 |
| Route | BUGUS A34 LMG/N0426F340 DCT TUDRA DCT BOKNO UN858 VANAD UN874 ARSAF DCT EGOZE/N0371F260 N874 VEKIN N873 FERDI Y18 DENUT |
| Aircraft | B738/M-SDE2E3FGHIJ1RWXYZ/LB1 |
Departure
| Time | N/A |
|---|---|
| Airport | Bergerac Dordogne-Périgord airport (LFBE) |
Arrival
| Time | 2026-04-27 11:09 |
|---|---|
| Airport | Rotterdam The Hague Airport (EHRD) |
| Time | Latitude | Longitude | Altitude | Speed | Heading |
|---|---|---|---|---|---|
| 2026-04-27 10:36 | 49.15480 | 1.81563 | 34231 ft | 502 kts | 35° |
| 2026-04-27 10:36 | 49.20936 | 1.88169 | 34231 ft | 500 kts | 36° |
| 2026-04-27 10:37 | 49.26380 | 1.94783 | 34241 ft | 499 kts | 36° |
| 2026-04-27 10:37 | 49.31813 | 2.01401 | 34246 ft | 499 kts | 36° |
| 2026-04-27 10:38 | 49.37234 | 2.08025 | 34240 ft | 498 kts | 36° |
| 2026-04-27 10:38 | 49.42646 | 2.14651 | 34234 ft | 497 kts | 36° |
| 2026-04-27 10:39 | 49.48049 | 2.21289 | 34240 ft | 497 kts | 36° |
| 2026-04-27 10:39 | 49.53407 | 2.27891 | 34248 ft | 496 kts | 35° |
| 2026-04-27 10:40 | 49.58788 | 2.34543 | 34235 ft | 496 kts | 36° |
| 2026-04-27 10:40 | 49.64157 | 2.41205 | 34243 ft | 495 kts | 35° |
| 2026-04-27 10:41 | 49.69518 | 2.47870 | 34237 ft | 495 kts | 36° |
| 2026-04-27 10:41 | 49.74870 | 2.54568 | 34248 ft | 495 kts | 36° |
| 2026-04-27 10:42 | 49.80665 | 2.60069 | 34260 ft | 486 kts | 21° |
| 2026-04-27 10:42 | 49.86806 | 2.64479 | 34243 ft | 487 kts | 21° |
| 2026-04-27 10:43 | 49.92958 | 2.68871 | 34241 ft | 486 kts | 21° |
| 2026-04-27 10:43 | 49.99099 | 2.73283 | 34246 ft | 487 kts | 21° |
| 2026-04-27 10:44 | 50.05241 | 2.77719 | 34238 ft | 486 kts | 21° |
| 2026-04-27 10:44 | 50.11370 | 2.82160 | 34244 ft | 485 kts | 21° |
| 2026-04-27 10:45 | 50.14380 | 2.84350 | 34220 ft | 469 kts | 21° |
| 2026-04-27 10:45 | 50.17277 | 2.86466 | 34237 ft | 452 kts | 21° |
| 2026-04-27 10:45 | 50.20104 | 2.88529 | 33753 ft | 446 kts | 20° |
| 2026-04-27 10:45 | 50.22906 | 2.90570 | 33210 ft | 444 kts | 20° |
| 2026-04-27 10:46 | 50.25698 | 2.92602 | 32655 ft | 443 kts | 20° |
| 2026-04-27 10:46 | 50.28496 | 2.94640 | 32028 ft | 443 kts | 21° |
| 2026-04-27 10:46 | 50.31285 | 2.96687 | 31411 ft | 444 kts | 20° |
| 2026-04-27 10:46 | 50.34092 | 2.98732 | 30795 ft | 445 kts | 20° |
| 2026-04-27 10:47 | 50.36905 | 3.00778 | 30126 ft | 446 kts | 20° |
| 2026-04-27 10:47 | 50.39722 | 3.02835 | 29373 ft | 447 kts | 20° |
| 2026-04-27 10:47 | 50.42542 | 3.04902 | 28624 ft | 447 kts | 20° |
| 2026-04-27 10:47 | 50.45357 | 3.06974 | 27962 ft | 446 kts | 21° |
| 2026-04-27 10:48 | 50.48110 | 3.09007 | 27441 ft | 441 kts | 21° |
| 2026-04-27 10:48 | 50.50870 | 3.11049 | 26894 ft | 437 kts | 21° |
| 2026-04-27 10:48 | 50.53606 | 3.13074 | 26365 ft | 433 kts | 21° |
| 2026-04-27 10:48 | 50.56318 | 3.15083 | 25844 ft | 429 kts | 21° |
| 2026-04-27 10:49 | 50.59002 | 3.17073 | 25331 ft | 425 kts | 21° |
| 2026-04-27 10:49 | 50.61666 | 3.19050 | 24833 ft | 421 kts | 21° |
| 2026-04-27 10:49 | 50.64306 | 3.21012 | 24299 ft | 418 kts | 21° |
| 2026-04-27 10:49 | 50.66926 | 3.22961 | 23767 ft | 416 kts | 21° |
| 2026-04-27 10:50 | 50.69532 | 3.24901 | 23171 ft | 413 kts | 21° |
| 2026-04-27 10:50 | 50.72118 | 3.26831 | 22627 ft | 409 kts | 21° |
| 2026-04-27 10:50 | 50.74671 | 3.28738 | 22135 ft | 404 kts | 21° |
| 2026-04-27 10:50 | 50.77198 | 3.30628 | 21614 ft | 400 kts | 21° |
| 2026-04-27 10:51 | 50.79705 | 3.32505 | 21116 ft | 396 kts | 21° |
| 2026-04-27 10:51 | 50.82185 | 3.34363 | 20619 ft | 393 kts | 21° |
| 2026-04-27 10:51 | 50.84641 | 3.36206 | 20144 ft | 390 kts | 21° |
| 2026-04-27 10:51 | 50.87084 | 3.38041 | 19654 ft | 387 kts | 21° |
| 2026-04-27 10:52 | 50.89509 | 3.39864 | 19162 ft | 384 kts | 21° |
| 2026-04-27 10:52 | 50.91916 | 3.41676 | 18683 ft | 382 kts | 21° |
| 2026-04-27 10:52 | 50.94309 | 3.43480 | 18147 ft | 380 kts | 21° |
| 2026-04-27 10:52 | 50.96682 | 3.45271 | 17636 ft | 377 kts | 21° |
| 2026-04-27 10:53 | 50.99040 | 3.47053 | 17127 ft | 374 kts | 21° |
| 2026-04-27 10:53 | 51.03692 | 3.50574 | 16181 ft | 367 kts | 22° |
| 2026-04-27 10:53 | 51.05990 | 3.52317 | 15715 ft | 364 kts | 22° |
| 2026-04-27 10:54 | 51.08237 | 3.54024 | 15265 ft | 362 kts | 22° |
| 2026-04-27 10:54 | 51.10501 | 3.55744 | 14801 ft | 359 kts | 23° |
| 2026-04-27 10:54 | 51.12750 | 3.57456 | 14355 ft | 357 kts | 23° |
| 2026-04-27 10:54 | 51.14984 | 3.59159 | 13876 ft | 355 kts | 23° |
| 2026-04-27 10:55 | 51.17204 | 3.60853 | 13371 ft | 353 kts | 24° |
| 2026-04-27 10:55 | 51.19408 | 3.62536 | 12900 ft | 350 kts | 24° |
| 2026-04-27 10:55 | 51.21593 | 3.64205 | 12442 ft | 346 kts | 24° |
| 2026-04-27 10:55 | 51.23755 | 3.65859 | 12003 ft | 343 kts | 24° |
| 2026-04-27 10:56 | 51.25866 | 3.67593 | 11760 ft | 340 kts | 26° |
| 2026-04-27 10:56 | 51.27936 | 3.69383 | 11452 ft | 338 kts | 27° |
| 2026-04-27 10:56 | 51.29984 | 3.71182 | 11029 ft | 335 kts | 27° |
| 2026-04-27 10:56 | 51.31990 | 3.72950 | 10901 ft | 323 kts | 27° |
| 2026-04-27 10:57 | 51.33926 | 3.74652 | 10742 ft | 313 kts | 27° |
| 2026-04-27 10:57 | 51.35806 | 3.76301 | 10617 ft | 303 kts | 27° |
| 2026-04-27 10:57 | 51.37627 | 3.77896 | 10495 ft | 294 kts | 27° |
| 2026-04-27 10:57 | 51.39393 | 3.79442 | 10372 ft | 285 kts | 26° |
| 2026-04-27 10:58 | 51.41107 | 3.80942 | 10260 ft | 277 kts | 26° |
| 2026-04-27 10:58 | 51.42803 | 3.82424 | 9952 ft | 277 kts | 27° |
| 2026-04-27 10:58 | 51.44492 | 3.83902 | 9651 ft | 276 kts | 26° |
| 2026-04-27 10:58 | 51.46173 | 3.85373 | 9371 ft | 275 kts | 26° |
| 2026-04-27 10:59 | 51.47848 | 3.86842 | 9081 ft | 274 kts | 27° |
| 2026-04-27 10:59 | 51.49514 | 3.88300 | 8798 ft | 272 kts | 26° |
| 2026-04-27 10:59 | 51.51175 | 3.89757 | 8513 ft | 272 kts | 27° |
| 2026-04-27 11:00 | 51.54453 | 3.92635 | 7947 ft | 269 kts | 27° |
| 2026-04-27 11:00 | 51.56092 | 3.94077 | 7668 ft | 268 kts | 27° |
| 2026-04-27 11:00 | 51.57723 | 3.95513 | 7389 ft | 266 kts | 27° |
| 2026-04-27 11:00 | 51.59369 | 3.96962 | 6793 ft | 277 kts | 28° |
| 2026-04-27 11:01 | 51.61098 | 3.98485 | 6094 ft | 289 kts | 28° |
| 2026-04-27 11:01 | 51.62870 | 4.00051 | 5416 ft | 291 kts | 28° |
| 2026-04-27 11:01 | 51.64623 | 4.01609 | 4907 ft | 284 kts | 28° |
| 2026-04-27 11:01 | 51.66339 | 4.03130 | 4406 ft | 280 kts | 29° |
| 2026-04-27 11:02 | 51.68014 | 4.04621 | 4070 ft | 270 kts | 30° |
| 2026-04-27 11:02 | 51.69630 | 4.06054 | 3748 ft | 261 kts | 29° |
| 2026-04-27 11:02 | 51.71192 | 4.07435 | 3436 ft | 252 kts | 30° |
| 2026-04-27 11:02 | 51.72708 | 4.08777 | 3140 ft | 248 kts | 30° |
| 2026-04-27 11:03 | 51.74221 | 4.10120 | 2833 ft | 249 kts | 30° |
| 2026-04-27 11:03 | 51.75735 | 4.11465 | 2532 ft | 249 kts | 30° |
| 2026-04-27 11:03 | 51.77249 | 4.12807 | 2292 ft | 246 kts | 29° |
| 2026-04-27 11:03 | 51.78726 | 4.14118 | 2188 ft | 240 kts | 30° |
| 2026-04-27 11:04 | 51.80183 | 4.15414 | 2045 ft | 240 kts | 30° |
| 2026-04-27 11:04 | 51.81646 | 4.16722 | 2014 ft | 240 kts | 30° |
| 2026-04-27 11:04 | 51.83109 | 4.18030 | 2037 ft | 242 kts | 30° |
| 2026-04-27 11:04 | 51.84576 | 4.19342 | 2027 ft | 239 kts | 30° |
| 2026-04-27 11:05 | 51.85997 | 4.20659 | 1995 ft | 237 kts | 38° |
| 2026-04-27 11:05 | 51.87034 | 4.22601 | 2024 ft | 222 kts | 56° |
| 2026-04-27 11:05 | 51.87904 | 4.24591 | 2011 ft | 211 kts | 55° |
| 2026-04-27 11:05 | 51.88710 | 4.26513 | 2037 ft | 201 kts | 58° |
| 2026-04-27 11:06 | 51.89449 | 4.28368 | 2022 ft | 191 kts | 57° |
| 2026-04-27 11:06 | 51.90154 | 4.30142 | 1872 ft | 185 kts | 58° |
| 2026-04-27 11:06 | 51.90833 | 4.31849 | 1649 ft | 175 kts | 57° |
| 2026-04-27 11:06 | 51.91473 | 4.33453 | 1435 ft | 165 kts | 57° |
| 2026-04-27 11:07 | 51.91877 | 4.34469 | 1290 ft | 158 kts | 57° |
| 2026-04-27 11:07 | 51.92443 | 4.35890 | 1089 ft | 143 kts | 57° |
| 2026-04-27 11:07 | 51.92968 | 4.37212 | 896 ft | 136 kts | 58° |
| 2026-04-27 11:07 | 51.93484 | 4.38458 | 735 ft | 135 kts | 56° |
| 2026-04-27 11:08 | 51.93996 | 4.39751 | 549 ft | 137 kts | 58° |
| 2026-04-27 11:08 | 51.94522 | 4.41091 | 363 ft | 145 kts | 56° |
| 2026-04-27 11:08 | 51.95076 | 4.42480 | 114 ft | 147 kts | 57° |
| 2026-04-27 11:08 | 51.95621 | 4.43833 | -5 ft | 132 kts | 59° |
| 2026-04-27 11:09 | 51.95913 | 4.44591 | -6 ft | 24 kts | 71° |
| 2026-04-27 11:09 | 51.95818 | 4.44760 | -6 ft | 20 kts | 173° |
| 2026-04-27 11:09 | 51.95729 | 4.44613 | -6 ft | 19 kts | 236° |
| 2026-04-27 11:09 | 51.95658 | 4.44440 | -6 ft | 18 kts | 237° |
| 2026-04-27 11:10 | 51.95591 | 4.44271 | -6 ft | 17 kts | 237° |
| 2026-04-27 11:10 | 51.95526 | 4.44110 | -6 ft | 17 kts | 236° |
| 2026-04-27 11:10 | 51.95463 | 4.43956 | -6 ft | 16 kts | 236° |
| 2026-04-27 11:10 | 51.95403 | 4.43806 | -6 ft | 16 kts | 238° |
| 2026-04-27 11:11 | 51.95346 | 4.43660 | -6 ft | 15 kts | 238° |
| 2026-04-27 11:11 | 51.95286 | 4.43525 | -6 ft | 14 kts | 216° |
| 2026-04-27 11:11 | 51.95199 | 4.43561 | -6 ft | 14 kts | 147° |
| 2026-04-27 11:11 | 51.95118 | 4.43643 | -7 ft | 14 kts | 147° |
| 2026-04-27 11:12 | 51.95042 | 4.43700 | -7 ft | 11 kts | 204° |
| 2026-04-27 11:12 | 51.94995 | 4.43608 | -7 ft | 11 kts | 236° |
| 2026-04-27 11:12 | 51.94958 | 4.43515 | -7 ft | 7 kts | 241° |
| 2026-04-27 11:12 | 51.94969 | 4.43476 | -7 ft | 3 kts | 320° |
| 2026-04-27 11:13 | 51.94986 | 4.43457 | -7 ft | 2 kts | 325° |
| 2026-04-27 11:13 | 51.94991 | 4.43451 | -7 ft | 0 kts | 325° |